Time;durP1;ratioP1;P1;durP2;ratioP2;P2;SDS_P1;SDS_P2;PMS_P1;PMS_P2;Temp;Humidity;BMP_temperature;BMP_pressure;BME280_temperature;BME280_humidity;BME280_pressure;Samples;Min_cycle;Max_cycle;Signal;HPM_P1;HPM_P2
2021/01/29 02:43:36;;;;;;;7.95;4.25;;;25.60;81.30;;;;;;5475686;22;17367375;-90
2021/01/29 02:50:22;;;;;;;10.90;4.85;;;24.70;76.40;;;;;;6233049;23;20027;-91
2021/01/29 02:53:21;;;;;;;9.15;3.75;;;24.70;76.30;;;;;;6193753;23;20059;-92
2021/01/29 02:56:33;;;;;;;6.77;3.97;;;24.60;76.30;;;;;;6257257;23;20050;-92
2021/01/29 02:59:54;;;;;;;10.75;4.90;;;24.60;76.40;;;;;;6258112;23;19988;-93
2021/01/29 03:03:10;;;;;;;8.30;4.70;;;24.50;76.10;;;;;;6059201;23;20038;-92
2021/01/29 03:06:37;;;;;;;10.18;4.13;;;24.40;76.70;;;;;;5967655;23;20020;-93
2021/01/29 03:09:30;;;;;;;7.00;4.10;;;24.30;76.50;;;;;;5936619;24;20077;-93
2021/01/29 03:25:49;;;;;;;9.27;4.43;;;24.10;76.30;;;;;;6252947;23;20016;-93
2021/01/29 03:31:49;;;;;;;7.78;4.15;;;24.10;76.90;;;;;;6097307;23;20244;-92
2021/01/29 03:34:33;;;;;;;6.43;3.97;;;24.10;76.70;;;;;;6230623;23;20000;-93
2021/01/29 03:37:09;;;;;;;9.20;4.22;;;24.10;76.40;;;;;;6230245;23;20209;-91
2021/01/29 03:39:39;;;;;;;8.40;4.50;;;24.10;76.60;;;;;;6229743;23;20000;-91
2021/01/29 03:42:12;;;;;;;6.68;3.92;;;24.10;76.40;;;;;;6230111;23;19991;-92
2021/01/29 03:44:42;;;;;;;8.25;3.53;;;24.10;76.10;;;;;;6230348;23;19998;-92
2021/01/29 03:48:04;;;;;;;5.47;3.97;;;24.00;76.60;;;;;;6229981;23;19995;-92
2021/01/29 03:51:10;;;;;;;6.72;4.10;;;24.00;76.80;;;;;;6196101;23;19992;-91
2021/01/29 03:54:20;;;;;;;5.25;3.90;;;23.90;77.00;;;;;;6230172;23;20018;-93
2021/01/29 03:57:36;;;;;;;9.23;3.70;;;24.00;76.70;;;;;;6249094;23;19992;-92
2021/01/29 04:00:36;;;;;;;5.22;3.53;;;23.90;77.10;;;;;;6231795;23;20227;-92
2021/01/29 04:03:46;;;;;;;4.78;3.80;;;24.00;76.70;;;;;;6253131;23;19992;-92
2021/01/29 04:06:25;;;;;;;6.18;3.70;;;23.90;76.50;;;;;;6257699;23;19999;-89
2021/01/29 04:09:30;;;;;;;5.30;3.78;;;23.90;76.00;;;;;;6257074;23;19988;-92
2021/01/29 04:12:42;;;;;;;6.13;3.65;;;23.90;75.30;;;;;;6257089;23;20004;-89
2021/01/29 04:15:53;;;;;;;4.33;3.13;;;24.00;75.30;;;;;;6163366;23;19997;-91
2021/01/29 04:18:48;;;;;;;4.65;3.50;;;24.00;74.70;;;;;;6135259;23;20013;-90
2021/01/29 04:21:59;;;;;;;6.15;3.67;;;24.00;74.60;;;;;;6105632;23;20300;-90
2021/01/29 04:25:24;;;;;;;6.18;3.25;;;24.00;75.20;;;;;;6104522;23;20006;-89
2021/01/29 04:28:04;;;;;;;7.40;3.85;;;24.00;75.50;;;;;;6105386;23;20034;-90
2021/01/29 04:30:43;;;;;;;6.75;3.67;;;24.00;76.00;;;;;;6081207;23;20006;-91
2021/01/29 04:33:15;;;;;;;4.72;3.35;;;23.90;75.90;;;;;;6080621;23;20147;-91
2021/01/29 04:35:45;;;;;;;6.53;3.85;;;23.90;75.90;;;;;;6082039;23;19998;-89
2021/01/29 04:38:44;;;;;;;4.80;3.50;;;23.90;76.60;;;;;;6080883;23;20002;-92
2021/01/29 04:41:32;;;;;;;6.65;3.90;;;23.90;76.70;;;;;;6081587;23;19990;-91
2021/01/29 04:44:24;;;;;;;7.75;3.90;;;23.80;76.40;;;;;;6105896;23;19995;-89
2021/01/29 04:47:50;;;;;;;8.40;4.07;;;23.80;76.00;;;;;;6106255;23;20006;-90
2021/01/29 04:50:42;;;;;;;5.97;3.35;;;23.80;76.10;;;;;;6126402;23;20335;-90
2021/01/29 04:53:39;;;;;;;6.53;3.30;;;23.70;75.90;;;;;;6140025;23;20002;-88
2021/01/29 04:56:45;;;;;;;6.18;3.50;;;23.70;76.10;;;;;;6140184;23;19990;-92
2021/01/29 04:59:49;;;;;;;5.85;3.50;;;23.70;76.30;;;;;;6158966;23;19997;-91
2021/01/29 05:02:55;;;;;;;7.55;3.67;;;23.80;76.50;;;;;;6194229;23;20073;-92
2021/01/29 05:06:12;;;;;;;5.20;3.75;;;23.80;76.50;;;;;;6194399;23;20009;-92
2021/01/29 05:08:46;;;;;;;7.40;3.72;;;23.80;76.50;;;;;;6112859;23;20002;-92
2021/01/29 05:11:32;;;;;;;5.55;3.70;;;23.80;76.10;;;;;;6120562;23;20001;-92
2021/01/29 05:14:15;;;;;;;5.32;3.72;;;23.70;76.30;;;;;;6139629;23;19993;-89
2021/01/29 05:16:43;;;;;;;4.07;3.30;;;23.80;76.60;;;;;;6141496;23;19993;-92
2021/01/29 05:19:24;;;;;;;5.65;3.33;;;23.80;75.20;;;;;;6165624;23;19997;-93
2021/01/29 05:22:21;;;;;;;5.72;3.35;;;23.80;74.40;;;;;;6140933;23;19994;-92
2021/01/29 05:25:05;;;;;;;5.90;3.55;;;23.90;74.10;;;;;;6141193;23;19993;-89
2021/01/29 05:27:41;;;;;;;4.90;2.70;;;23.90;74.30;;;;;;6163885;23;20009;-90
2021/01/29 05:30:53;;;;;;;7.95;3.55;;;23.90;74.80;;;;;;6165557;23;20002;-91
2021/01/29 05:33:58;;;;;;;5.37;3.30;;;23.90;74.70;;;;;;6137459;23;20009;-92
2021/01/29 05:36:54;;;;;;;7.55;3.55;;;23.80;75.20;;;;;;6164211;23;20001;-90
2021/01/29 05:39:44;;;;;;;4.82;3.17;;;23.80;75.40;;;;;;6166407;23;20052;-91
2021/01/29 05:42:52;;;;;;;9.13;3.53;;;23.80;75.60;;;;;;6166527;23;20045;-91
2021/01/29 05:45:40;;;;;;;6.05;3.35;;;23.80;75.70;;;;;;6128678;23;19995;-93
2021/01/29 05:48:31;;;;;;;5.78;2.97;;;23.80;75.20;;;;;;6231908;23;20042;-93
2021/01/29 05:51:23;;;;;;;6.18;3.58;;;23.80;75.30;;;;;;6231559;23;20038;-90
2021/01/29 05:54:31;;;;;;;7.38;3.50;;;23.80;75.30;;;;;;6231639;23;20004;-92
2021/01/29 05:57:34;;;;;;;5.53;3.65;;;23.80;74.70;;;;;;6257002;23;20004;-91
2021/01/29 06:00:29;;;;;;;5.90;3.72;;;23.80;75.10;;;;;;6256399;23;19996;-91
2021/01/29 06:03:27;;;;;;;7.05;3.65;;;23.70;75.30;;;;;;6189592;23;20004;-90
2021/01/29 06:06:21;;;;;;;6.43;3.50;;;23.70;74.90;;;;;;6231719;23;19995;-92
2021/01/29 06:08:57;;;;;;;7.07;3.10;;;23.70;73.80;;;;;;6256490;23;20016;-92
2021/01/29 06:11:59;;;;;;;4.20;3.10;;;23.60;74.30;;;;;;6231471;23;20019;-90
2021/01/29 06:15:02;;;;;;;6.05;3.05;;;23.70;74.20;;;;;;6227438;23;19988;-91
2021/01/29 06:18:07;;;;;;;5.00;3.33;;;23.70;73.30;;;;;;6256626;23;20059;-91
2021/01/29 06:20:58;;;;;;;4.85;3.33;;;23.60;73.80;;;;;;6256397;23;19992;-91
2021/01/29 06:23:49;;;;;;;5.78;3.25;;;23.60;73.20;;;;;;6231110;23;20276;-91
2021/01/29 06:26:48;;;;;;;5.80;3.65;;;23.70;73.10;;;;;;6255963;23;20011;-91
2021/01/29 06:29:27;;;;;;;5.75;3.03;;;23.60;73.50;;;;;;6182385;23;20011;-91
2021/01/29 06:32:06;;;;;;;6.07;2.97;;;23.60;73.30;;;;;;6230869;23;20000;-92
2021/01/29 06:34:44;;;;;;;6.20;3.08;;;23.60;73.00;;;;;;6230957;23;19999;-92
2021/01/29 06:37:35;;;;;;;4.00;2.90;;;23.70;73.60;;;;;;6230860;23;20004;-90
2021/01/29 06:40:27;;;;;;;7.22;3.35;;;23.60;73.10;;;;;;6256071;23;20307;-91
2021/01/29 06:43:26;;;;;;;5.40;3.10;;;23.60;73.20;;;;;;6256083;23;20379;-90
2021/01/29 06:46:07;;;;;;;4.10;2.92;;;23.60;73.80;;;;;;6230963;23;20227;-91
2021/01/29 06:48:50;;;;;;;3.53;2.97;;;23.60;74.00;;;;;;6230507;23;20197;-91
2021/01/29 06:51:16;;;;;;;;;;;23.50;74.50;;;;;;6231089;23;19992;-90
2021/01/29 06:54:16;;;;;;;5.70;3.38;;;23.50;74.30;;;;;;6231071;23;19900;-90
2021/01/29 06:57:40;;;;;;;4.57;3.13;;;23.50;74.40;;;;;;6257071;23;20290;-91
2021/01/29 07:00:29;;;;;;;3.88;2.90;;;23.50;75.30;;;;;;6193551;23;20067;-88
2021/01/29 07:03:25;;;;;;;4.20;3.05;;;23.40;75.60;;;;;;6257881;23;20217;-91
2021/01/29 07:06:15;;;;;;;6.45;3.40;;;23.30;75.50;;;;;;6230539;23;19996;-91
2021/01/29 07:09:14;;;;;;;5.07;3.15;;;23.30;76.20;;;;;;6199895;23;20003;-92
2021/01/29 07:12:10;;;;;;;4.13;3.25;;;23.20;77.00;;;;;;6253367;23;20003;-91
2021/01/29 07:15:01;;;;;;;5.95;3.03;;;23.20;78.70;;;;;;6256902;23;19996;-92
2021/01/29 07:17:43;;;;;;;5.70;3.30;;;23.10;77.90;;;;;;6229740;23;20000;-89
2021/01/29 07:20:47;;;;;;;6.18;3.45;;;23.10;78.40;;;;;;6230308;23;20284;-90
2021/01/29 07:24:36;;;;;;;3.60;3.30;;;23.00;78.10;;;;;;6256818;23;20002;-92
2021/01/29 07:27:08;;;;;;;6.30;3.22;;;23.00;78.00;;;;;;6048458;23;20007;-94
2021/01/29 07:30:00;;;;;;;6.95;3.42;;;23.00;77.60;;;;;;6024627;23;20034;-91
2021/01/29 07:32:59;;;;;;;4.95;3.42;;;23.00;77.40;;;;;;6200598;23;20004;-92
2021/01/29 07:39:17;;;;;;;5.57;3.05;;;23.00;79.90;;;;;;6256758;23;20010;-92
2021/01/29 07:42:21;;;;;;;5.72;3.33;;;22.90;77.50;;;;;;6229808;23;19992;-91
2021/01/29 07:45:25;;;;;;;8.48;3.75;;;22.90;77.70;;;;;;6227300;23;20188;-91
2021/01/29 07:48:25;;;;;;;8.27;3.97;;;23.00;76.90;;;;;;6255519;23;20035;-90
2021/01/29 07:51:28;;;;;;;8.30;3.00;;;23.00;77.30;;;;;;6255562;23;20010;-91
2021/01/29 07:54:43;;;;;;;4.85;3.47;;;22.90;76.50;;;;;;6254464;23;20235;-91
2021/01/29 07:57:47;;;;;;;4.22;3.30;;;22.90;77.30;;;;;;6135003;23;20002;-91
2021/01/29 08:00:26;;;;;;;5.80;3.45;;;22.90;76.80;;;;;;6133279;23;20000;-92
2021/01/29 08:03:26;;;;;;;5.22;3.10;;;22.90;77.20;;;;;;6255717;23;20276;-91
2021/01/29 08:06:21;;;;;;;4.50;3.50;;;22.90;77.40;;;;;;6230194;23;19996;-91
2021/01/29 08:09:21;;;;;;;4.10;3.10;;;22.90;78.40;;;;;;6254102;23;20006;-90
2021/01/29 08:12:01;;;;;;;5.45;2.95;;;22.70;78.70;;;;;;6228340;23;19992;-91
2021/01/29 08:14:33;;;;;;;6.28;3.42;;;22.70;79.00;;;;;;6251334;23;19996;-90
2021/01/29 08:17:28;;;;;;;6.63;3.88;;;22.70;79.30;;;;;;6229874;23;19992;-89
2021/01/29 08:20:11;;;;;;;4.32;3.42;;;22.70;79.20;;;;;;6256201;23;19996;-91
2021/01/29 08:23:14;;;;;;;5.90;3.25;;;22.70;81.10;;;;;;6230006;23;20039;-91
2021/01/29 08:26:28;;;;;;;4.00;3.00;;;22.60;79.40;;;;;;6255338;23;20055;-92
2021/01/29 08:29:25;;;;;;;7.70;3.30;;;22.70;78.50;;;;;;6256344;23;20023;-91
2021/01/29 08:32:28;;;;;;;6.45;3.45;;;22.70;78.70;;;;;;6256835;23;20272;-89
2021/01/29 08:35:23;;;;;;;5.70;3.13;;;22.70;79.20;;;;;;6229999;23;19992;-91
2021/01/29 08:38:20;;;;;;;5.78;3.50;;;22.60;78.40;;;;;;6257029;23;19996;-89
2021/01/29 08:41:25;;;;;;;3.63;2.90;;;22.60;78.30;;;;;;6256777;23;19992;-91
2021/01/29 08:44:18;;;;;;;7.35;3.60;;;22.60;79.60;;;;;;6255065;23;20030;-91
2021/01/29 08:47:28;;;;;;;5.15;3.17;;;22.60;78.90;;;;;;6229960;23;20004;-92
2021/01/29 08:50:29;;;;;;;8.82;3.58;;;22.60;78.40;;;;;;6134585;23;19998;-91
2021/01/29 08:53:36;;;;;;;4.60;3.47;;;22.60;78.50;;;;;;6136193;23;20005;-92
2021/01/29 08:56:36;;;;;;;5.75;3.08;;;22.60;78.70;;;;;;6256662;23;19999;-91
2021/01/29 08:59:20;;;;;;;7.38;3.55;;;22.50;78.80;;;;;;6208952;23;20000;-90
2021/01/29 09:01:52;;;;;;;10.23;3.85;;;22.50;78.90;;;;;;6170709;23;19993;-89
2021/01/29 09:04:21;;;;;;;5.35;3.20;;;22.60;78.60;;;;;;6170784;23;19993;-90
2021/01/29 09:06:49;;;;;;;7.65;3.80;;;22.60;78.70;;;;;;6170761;23;19993;-91
2021/01/29 09:09:22;;;;;;;8.27;3.95;;;22.60;78.60;;;;;;6195294;23;20031;-92
2021/01/29 09:11:58;;;;;;;5.97;3.22;;;22.60;79.00;;;;;;6194978;23;20032;-91
2021/01/29 09:14:37;;;;;;;6.18;3.65;;;22.60;78.80;;;;;;6195232;23;20014;-91
2021/01/29 09:17:19;;;;;;;4.28;3.00;;;22.60;79.10;;;;;;6171054;23;19994;-91
2021/01/29 09:20:02;;;;;;;4.53;3.28;;;22.60;79.30;;;;;;6194276;23;20012;-92
2021/01/29 09:23:01;;;;;;;6.20;3.67;;;22.60;79.00;;;;;;6195884;23;19997;-91
2021/01/29 09:25:48;;;;;;;5.57;3.33;;;22.60;79.70;;;;;;6171004;23;20288;-93
2021/01/29 09:28:31;;;;;;;5.15;3.55;;;22.50;79.20;;;;;;6170892;23;20072;-91
2021/01/29 09:31:30;;;;;;;5.05;3.20;;;22.50;79.40;;;;;;6195899;23;20207;-92
2021/01/29 09:34:14;;;;;;;4.78;3.40;;;22.50;79.20;;;;;;6141107;23;20301;-91
2021/01/29 09:37:12;;;;;;;9.40;3.97;;;22.50;79.60;;;;;;6165124;23;20002;-91
2021/01/29 09:40:04;;;;;;;8.13;3.72;;;22.50;79.20;;;;;;6163992;23;20001;-92
2021/01/29 09:43:16;;;;;;;6.63;3.75;;;22.50;79.10;;;;;;6163330;23;20001;-91
2021/01/29 09:45:54;;;;;;;5.15;3.50;;;22.50;79.30;;;;;;6164803;23;19993;-91
2021/01/29 09:48:27;;;;;;;5.00;3.38;;;22.50;79.40;;;;;;6141135;23;20009;-91
2021/01/29 09:51:15;;;;;;;;;;;22.50;79.30;;;;;;6164881;23;20001;-91
2021/01/29 09:54:17;;;;;;;5.72;3.55;;;22.50;79.50;;;;;;6162554;23;19904;-92
2021/01/29 09:57:04;;;;;;;6.53;3.70;;;22.50;79.50;;;;;;6025516;23;20014;-90
2021/01/29 09:59:36;;;;;;;7.85;4.28;;;22.50;79.70;;;;;;6004283;23;20082;-90
2021/01/29 10:02:35;;;;;;;4.72;3.22;;;22.50;79.30;;;;;;6159714;23;19993;-91
2021/01/29 10:05:32;;;;;;;5.78;3.35;;;22.50;79.20;;;;;;6162952;23;20031;-90
2021/01/29 10:08:16;;;;;;;7.22;3.60;;;22.40;79.40;;;;;;6196112;23;19997;-90
2021/01/29 10:11:20;;;;;;;5.68;3.85;;;22.40;79.20;;;;;;6195744;23;20068;-92
2021/01/29 10:14:19;;;;;;;6.22;3.78;;;22.40;79.40;;;;;;6197253;23;20008;-92
2021/01/29 10:16:53;;;;;;;5.50;3.20;;;22.40;79.10;;;;;;6196788;23;20024;-91
2021/01/29 10:19:43;;;;;;;5.20;3.45;;;22.40;79.20;;;;;;6197165;23;20016;-91
2021/01/29 10:22:22;;;;;;;6.35;3.60;;;22.40;79.10;;;;;;6190568;23;20296;-91
2021/01/29 10:25:27;;;;;;;6.20;3.47;;;22.40;79.00;;;;;;6197450;23;20032;-91
2021/01/29 10:28:16;;;;;;;6.10;3.58;;;22.50;78.90;;;;;;6205744;23;20307;-90
2021/01/29 10:31:20;;;;;;;6.25;3.72;;;22.60;78.00;;;;;;6256195;23;20309;-92
2021/01/29 10:33:50;;;;;;;5.57;3.25;;;22.60;77.70;;;;;;6212454;23;20004;-90
2021/01/29 10:36:47;;;;;;;9.98;3.13;;;22.70;77.20;;;;;;6257334;23;20323;-90
2021/01/29 10:39:32;;;;;;;5.47;3.70;;;22.80;76.40;;;;;;6228114;23;20000;-90
2021/01/29 10:42:17;;;;;;;7.75;3.95;;;22.90;75.80;;;;;;6231653;23;20004;-90
2021/01/29 10:44:52;;;;;;;10.50;3.38;;;23.00;75.30;;;;;;6258226;23;20048;-91
2021/01/29 10:48:05;;;;;;;4.28;3.22;;;23.10;75.30;;;;;;6232575;23;19999;-91
2021/01/29 10:51:04;;;;;;;6.90;3.47;;;23.10;74.50;;;;;;6134021;23;20053;-94
2021/01/29 10:54:05;;;;;;;5.15;2.95;;;23.20;74.60;;;;;;6152744;23;20008;-92
2021/01/29 10:57:06;;;;;;;6.57;3.35;;;23.20;74.80;;;;;;6230650;23;19988;-93
2021/01/29 11:00:14;;;;;;;6.53;3.28;;;23.30;74.90;;;;;;6258335;23;20287;-92
2021/01/29 11:02:47;;;;;;;4.75;3.22;;;23.20;75.40;;;;;;6229181;23;19997;-90
2021/01/29 11:05:43;;;;;;;8.43;3.40;;;23.20;75.50;;;;;;6256053;23;19996;-90
2021/01/29 11:12:13;;;;;;;8.05;3.28;;;23.20;75.80;;;;;;6019310;23;20059;-89
2021/01/29 11:15:22;;;;;;;6.72;3.10;;;23.20;75.20;;;;;;6135576;23;20231;-89
2021/01/29 11:18:30;;;;;;;7.35;4.15;;;23.30;75.00;;;;;;6094255;23;20004;-91
2021/01/29 11:21:19;;;;;;;7.75;3.67;;;23.30;75.00;;;;;;6135471;23;19998;-90
2021/01/29 11:24:15;;;;;;;7.43;4.18;;;23.40;74.00;;;;;;6111012;23;19994;-89
2021/01/29 11:26:59;;;;;;;9.30;4.82;;;23.40;73.80;;;;;;6214321;23;20003;-91
2021/01/29 11:30:06;;;;;;;6.50;3.15;;;23.50;73.90;;;;;;6254922;23;20236;-90
2021/01/29 11:33:09;;;;;;;9.77;4.13;;;23.50;73.00;;;;;;6256936;23;20014;-90
2021/01/29 11:36:06;;;;;;;5.90;4.55;;;23.60;73.30;;;;;;6210268;23;20157;-90
2021/01/29 11:38:47;;;;;;;7.30;4.45;;;23.60;73.30;;;;;;6194207;23;20004;-92
2021/01/29 11:41:23;;;;;;;7.55;4.30;;;23.70;73.30;;;;;;6168612;23;20005;-92
2021/01/29 11:44:12;;;;;;;6.90;3.67;;;23.90;72.80;;;;;;6169559;23;19997;-93
2021/01/29 11:47:07;;;;;;;53.63;10.27;;;24.00;72.80;;;;;;6168918;23;20004;-92
2021/01/29 11:50:11;;;;;;;65.80;19.83;;;24.20;72.00;;;;;;6193234;23;20228;-93
2021/01/29 11:53:32;;;;;;;28.92;6.57;;;24.30;71.60;;;;;;6170045;23;20017;-93
2021/01/29 11:56:19;;;;;;;27.95;9.30;;;24.40;73.80;;;;;;6147958;23;20024;-92
2021/01/29 11:59:01;;;;;;;15.05;4.82;;;24.50;74.10;;;;;;6191791;23;20004;-92
2021/01/29 12:02:14;;;;;;;;;;;;;;;;;;;;;
2021/01/29 12:05:34;;;;;;;65.05;11.02;;;24.50;73.40;;;;;;6142380;23;20026;-93
2021/01/29 12:08:33;;;;;;;32.70;6.05;;;24.40;74.10;;;;;;6162716;23;20035;-93
2021/01/29 12:11:35;;;;;;;14.15;3.92;;;24.20;75.70;;;;;;6191843;23;19993;-93
2021/01/29 12:14:29;;;;;;;60.72;9.77;;;24.20;74.20;;;;;;6144395;23;20001;-94
2021/01/29 12:20:41;;;;;;;22.48;4.78;;;24.20;73.50;;;;;;6194164;23;20348;-91
2021/01/29 12:23:44;;;;;;;32.25;6.05;;;24.20;75.60;;;;;;6166651;23;19989;-92
2021/01/29 12:26:48;;;;;;;49.60;10.13;;;24.30;75.60;;;;;;6169711;23;20027;-91
2021/01/29 12:29:42;;;;;;;42.72;8.20;;;24.40;73.70;;;;;;6194892;23;20077;-93
2021/01/29 12:32:40;;;;;;;37.47;7.28;;;24.60;74.40;;;;;;6164332;23;20016;-92
2021/01/29 12:35:52;;;;;;;22.20;6.20;;;24.60;73.50;;;;;;6160734;23;20001;-93
2021/01/29 12:38:53;;;;;;;29.40;6.30;;;24.70;73.90;;;;;;6195101;23;20004;-91
2021/01/29 12:41:56;;;;;;;36.03;7.07;;;24.80;74.60;;;;;;6197980;23;20005;-93
2021/01/29 12:44:51;;;;;;;22.42;5.70;;;24.80;74.50;;;;;;6148966;23;19997;-92
2021/01/29 12:47:39;;;;;;;24.90;4.90;;;25.00;75.30;;;;;;6165967;23;19997;-92
2021/01/29 12:50:44;;;;;;;11.02;3.65;;;25.10;75.00;;;;;;6197304;23;19989;-92
2021/01/29 12:53:29;;;;;;;24.08;5.90;;;24.80;76.10;;;;;;6192323;23;19998;-94
2021/01/29 12:56:34;;;;;;;20.27;4.45;;;24.80;76.80;;;;;;6194716;23;20000;-93
2021/01/29 12:59:03;;;;;;;13.07;4.80;;;25.00;76.90;;;;;;6220092;23;20001;-94
2021/01/29 13:01:32;;;;;;;21.58;6.50;;;25.10;76.60;;;;;;6195187;23;20020;-94
2021/01/29 13:04:30;;;;;;;22.50;5.25;;;25.40;76.70;;;;;;6197068;23;20001;-94
2021/01/29 13:11:02;;;;;;;31.02;7.82;;;25.30;76.50;;;;;;6197926;23;20359;-94
2021/01/29 13:13:34;;;;;;;72.95;9.45;;;25.60;76.60;;;;;;6133080;23;19997;-94
2021/01/29 13:16:26;;;;;;;68.90;10.27;;;25.60;76.90;;;;;;6195549;23;20056;-91
2021/01/29 13:19:03;;;;;;;73.78;10.43;;;25.60;76.10;;;;;;6194504;23;20252;-91
2021/01/29 13:21:58;;;;;;;49.13;9.52;;;25.70;75.90;;;;;;6194615;23;19999;-91
2021/01/29 13:24:33;;;;;;;129.57;15.27;;;25.70;76.10;;;;;;6219331;23;19997;-91
2021/01/29 13:27:14;;;;;;;66.22;10.30;;;25.80;75.20;;;;;;6195617;23;20060;-92
2021/01/29 13:29:43;;;;;;;;;;;26.00;75.60;;;;;;6195863;23;20005;-92
2021/01/29 13:32:47;;;;;;;24.05;5.18;;;26.40;74.00;;;;;;6224514;23;19903;-92
2021/01/29 13:35:22;;;;;;;12.93;4.03;;;26.30;73.80;;;;;;6169469;23;20028;-94
2021/01/29 13:37:49;;;;;;;7.22;3.60;;;26.60;73.70;;;;;;6147143;23;20032;-95
2021/01/29 13:40:27;;;;;;;3.78;3.10;;;26.80;71.40;;;;;;6169912;23;20522;-93
2021/01/29 13:43:09;;;;;;;7.45;3.00;;;26.90;70.00;;;;;;6183736;23;20022;-94
2021/01/29 13:45:41;;;;;;;8.07;3.17;;;27.10;70.20;;;;;;6202310;23;20276;-93
2021/01/29 13:48:15;;;;;;;;;;;27.30;70.10;;;;;;6227127;23;20324;-92
2021/01/29 13:50:53;;;;;;;7.28;3.50;;;27.70;68.80;;;;;;6227489;23;19927;-95
2021/01/29 13:53:50;;;;;;;6.93;3.90;;;27.60;66.70;;;;;;6226063;23;20001;-95
2021/01/29 13:56:57;;;;;;;8.82;3.13;;;27.80;66.00;;;;;;6226361;23;20189;-94
2021/01/29 14:00:25;;;;;;;4.75;2.95;;;28.10;66.00;;;;;;6171486;23;20061;-94
2021/01/29 14:03:31;;;;;;;8.07;4.97;;;28.30;65.70;;;;;;6193397;23;20059;-95
2021/01/29 14:06:02;;;;;;;13.80;5.03;;;28.60;62.80;;;;;;6204452;23;19993;-95
2021/01/29 14:08:33;;;;;;;10.43;4.07;;;29.10;62.80;;;;;;6227045;23;20020;-95
2021/01/29 14:14:54;;;;;;;7.32;4.07;;;29.30;60.40;;;;;;6230691;23;20007;-93
2021/01/29 14:17:59;;;;;;;7.18;3.22;;;29.70;61.40;;;;;;6224646;23;19996;-91
2021/01/29 14:20:50;;;;;;;9.07;3.00;;;29.80;59.70;;;;;;6224900;23;20000;-90
2021/01/29 14:37:41;;;;;;;4.53;3.13;;;29.80;60.40;;;;;;6096637;22;2373856;-90
2021/01/29 14:40:48;;;;;;;9.57;3.17;;;30.10;59.20;;;;;;6207959;23;20076;-88
2021/01/29 14:44:11;;;;;;;4.70;3.25;;;30.10;59.10;;;;;;6234420;23;20269;-90
2021/01/29 14:47:19;;;;;;;5.45;3.15;;;30.40;61.30;;;;;;6059908;23;20325;-92
2021/01/29 14:49:46;;;;;;;4.78;2.95;;;30.50;60.00;;;;;;6037773;23;19999;-91
2021/01/29 14:52:15;;;;;;;9.75;3.58;;;30.90;59.00;;;;;;6208356;23;20003;-89
2021/01/29 14:55:23;;;;;;;8.93;3.88;;;31.20;58.00;;;;;;6207674;23;19989;-91
2021/01/29 14:57:55;;;;;;;9.98;3.63;;;31.50;57.20;;;;;;6207434;23;19997;-90
2021/01/29 15:00:41;;;;;;;8.48;3.63;;;31.50;59.20;;;;;;6234443;23;19992;-90
2021/01/29 15:03:54;;;;;;;8.18;3.63;;;31.40;56.80;;;;;;6234249;23;20272;-87
2021/01/29 15:06:32;;;;;;;17.55;4.07;;;31.30;58.60;;;;;;6178441;23;20007;-88
2021/01/29 15:09:43;;;;;;;8.52;4.35;;;31.60;57.30;;;;;;6204963;23;20089;-89
2021/01/29 15:12:14;;;;;;;8.73;3.40;;;31.70;56.50;;;;;;6060442;23;20021;-90
2021/01/29 15:14:47;;;;;;;7.55;2.92;;;31.50;55.80;;;;;;6193574;23;19996;-89
2021/01/29 15:17:38;;;;;;;6.80;3.45;;;31.50;56.20;;;;;;6207833;23;20324;-87
2021/01/29 15:20:37;;;;;;;5.70;3.22;;;31.60;55.50;;;;;;6207630;23;20213;-89
2021/01/29 15:23:26;;;;;;;7.50;3.95;;;31.70;55.40;;;;;;6234966;23;20066;-88
2021/01/29 15:28:48;;;;;;;6.70;3.60;;;33.10;54.70;;;;;;6196969;23;20040;-90
2021/01/29 15:31:19;;;;;;;6.28;3.08;;;33.10;54.70;;;;;;6177710;23;19993;-89
2021/01/29 15:33:48;;;;;;;7.80;3.63;;;33.50;53.70;;;;;;6177704;23;20031;-89
2021/01/29 15:36:27;;;;;;;6.47;3.03;;;33.40;53.40;;;;;;6175225;23;19993;-90
2021/01/29 15:39:25;;;;;;;4.57;2.90;;;33.30;53.00;;;;;;6170971;23;20004;-87
2021/01/29 15:41:57;;;;;;;6.85;3.30;;;33.70;53.10;;;;;;6171233;23;20009;-90
2021/01/29 15:44:48;;;;;;;11.18;4.32;;;33.80;52.90;;;;;;6170985;23;20023;-91
2021/01/29 15:48:03;;;;;;;8.50;3.60;;;33.50;53.50;;;;;;6171128;23;19997;-90
2021/01/29 15:54:02;;;;;;;10.50;4.03;;;33.60;54.30;;;;;;6139792;23;20234;-89
2021/01/29 15:56:59;;;;;;;;;;;;;;;;;;;;;
2021/01/29 16:03:08;;;;;;;7.85;3.20;;;34.00;53.60;;;;;;6195154;23;20281;-93
2021/01/29 16:06:09;;;;;;;6.60;3.60;;;34.40;54.30;;;;;;6201845;23;20004;-92
2021/01/29 16:08:52;;;;;;;5.53;2.95;;;34.60;53.10;;;;;;6227919;23;20016;-88
2021/01/29 16:12:04;;;;;;;8.20;3.85;;;34.30;53.70;;;;;;6200820;23;20188;-90
2021/01/29 16:15:18;;;;;;;5.97;3.50;;;34.40;53.50;;;;;;6123915;23;20004;-89
2021/01/29 16:17:59;;;;;;;5.57;3.20;;;34.30;53.20;;;;;;6140609;23;20048;-88
2021/01/29 16:21:12;;;;;;;14.43;5.82;;;34.20;54.20;;;;;;6144559;23;20044;-88
2021/01/29 16:23:48;;;;;;;8.07;4.10;;;33.80;55.40;;;;;;6164983;23;20001;-88
2021/01/29 16:26:44;;;;;;;7.90;3.53;;;33.90;55.10;;;;;;6165539;23;20170;-91
2021/01/29 16:29:21;;;;;;;5.57;3.40;;;34.10;54.40;;;;;;6162376;23;19997;-90
2021/01/29 16:32:15;;;;;;;;;;;;;;;;;;;;;
2021/01/29 16:34:49;;;;;;;4.85;3.70;;;33.80;54.50;;;;;;6091797;23;20001;-89
2021/01/29 16:38:01;;;;;;;6.65;3.92;;;34.20;55.00;;;;;;6093573;23;20185;-89
2021/01/29 16:44:55;;;;;;;4.78;3.53;;;33.50;55.80;;;;;;5955023;23;20009;-90
2021/01/29 16:47:40;;;;;;;7.63;4.28;;;33.60;56.00;;;;;;6129773;23;20020;-89
2021/01/29 16:50:21;;;;;;;5.63;3.67;;;33.30;55.70;;;;;;6140203;23;19997;-89
2021/01/29 16:53:06;;;;;;;5.50;3.47;;;33.50;55.20;;;;;;6140724;23;20036;-89
2021/01/29 16:55:36;;;;;;;8.07;3.45;;;33.60;56.30;;;;;;6140681;23;20332;-90
2021/01/29 16:58:07;;;;;;;6.80;4.18;;;33.50;54.60;;;;;;6140898;23;20001;-92
2021/01/29 17:00:37;;;;;;;16.95;4.38;;;33.00;54.70;;;;;;6140481;23;20005;-90
2021/01/29 17:03:51;;;;;;;9.00;3.45;;;32.60;57.50;;;;;;6166774;23;19997;-91
2021/01/29 17:06:36;;;;;;;7.45;5.20;;;32.20;57.60;;;;;;6136803;23;20033;-91
2021/01/29 17:09:16;;;;;;;35.33;32.10;;;33.50;57.10;;;;;;6166480;23;19990;-90
2021/01/29 17:11:43;;;;;;;317.83;287.13;;;34.70;53.80;;;;;;6166350;23;20032;-89
2021/01/29 17:14:36;;;;;;;339.10;307.10;;;34.60;52.50;;;;;;6166943;23;19997;-90
2021/01/29 17:17:05;;;;;;;6.85;4.72;;;33.70;54.60;;;;;;6081715;23;20003;-88
2021/01/29 17:19:33;;;;;;;13.75;8.85;;;32.50;55.10;;;;;;6081411;23;19994;-89
2021/01/29 17:22:30;;;;;;;10.15;4.85;;;32.00;59.30;;;;;;6081660;23;20010;-89
2021/01/29 17:25:28;;;;;;;10.80;3.67;;;32.00;58.20;;;;;;6105079;23;19994;-90
2021/01/29 17:28:01;;;;;;;8.43;3.72;;;32.40;58.50;;;;;;6077944;23;20058;-89
2021/01/29 17:30:41;;;;;;;7.88;3.72;;;32.70;57.90;;;;;;6080351;23;20358;-89
2021/01/29 17:33:25;;;;;;;10.98;7.75;;;33.30;53.90;;;;;;6105198;23;19991;-90
2021/01/29 17:36:15;;;;;;;12.70;7.05;;;33.60;53.00;;;;;;6081618;23;20001;-90
2021/01/29 17:39:07;;;;;;;11.57;3.95;;;34.30;53.10;;;;;;6018906;23;20057;-89
2021/01/29 17:45:33;;;;;;;8.43;3.05;;;34.70;51.90;;;;;;6004670;23;20212;-91
2021/01/29 17:48:38;;;;;;;8.43;3.78;;;35.00;52.30;;;;;;5988572;23;20003;-88
2021/01/29 17:51:29;;;;;;;7.28;3.17;;;34.20;53.00;;;;;;6047549;23;19999;-89
2021/01/29 17:57:36;;;;;;;10.48;3.83;;;32.50;56.90;;;;;;5991152;24;20248;-92
2021/01/29 18:00:10;;;;;;;7.65;3.63;;;33.60;54.90;;;;;;5966693;24;20000;-90
2021/01/29 18:02:38;;;;;;;7.82;3.38;;;34.30;52.90;;;;;;5991321;24;20028;-90
2021/01/29 18:05:08;;;;;;;7.72;3.78;;;34.80;52.60;;;;;;5990919;24;20000;-89
2021/01/29 18:15:03;;;;;;;;;;;;;;;;;;;;;
2021/01/29 18:18:44;;;;;;;8.23;3.15;;;34.60;52.20;;;;;;5938556;24;20036;-89
2021/01/29 18:21:48;;;;;;;5.47;3.05;;;33.50;54.40;;;;;;5929620;23;20004;-90
2021/01/29 18:24:20;;;;;;;6.10;3.30;;;32.50;52.50;;;;;;5991477;24;20004;-89
2021/01/29 18:26:55;;;;;;;5.85;3.42;;;31.70;54.50;;;;;;6134848;23;19994;-90
2021/01/29 18:29:28;;;;;;;4.53;2.95;;;32.30;56.30;;;;;;6135619;23;20199;-92
2021/01/29 18:31:57;;;;;;;5.32;3.53;;;33.00;53.60;;;;;;6110643;23;20278;-91
2021/01/29 18:34:36;;;;;;;;;;;;;;;;;;;;;
2021/01/29 18:37:03;;;;;;;8.05;3.75;;;33.00;54.40;;;;;;6137035;23;20002;-88
2021/01/29 18:39:30;;;;;;;5.88;3.80;;;32.60;54.60;;;;;;6137609;23;19990;-89
2021/01/29 18:42:04;;;;;;;7.90;3.20;;;32.30;55.60;;;;;;6110721;23;20008;-91
2021/01/29 18:44:36;;;;;;;11.13;3.35;;;32.10;55.90;;;;;;6142228;23;20101;-86
2021/01/29 18:47:03;;;;;;;7.03;3.22;;;32.00;55.60;;;;;;6166157;23;20026;-89
2021/01/29 18:49:35;;;;;;;6.35;3.17;;;32.50;55.40;;;;;;6165821;23;20001;-89
2021/01/29 18:52:05;;;;;;;6.55;3.45;;;32.90;54.00;;;;;;6139868;23;19997;-90
2021/01/29 18:54:34;;;;;;;6.03;3.28;;;33.30;51.40;;;;;;6139519;23;20057;-90
2021/01/29 18:57:04;;;;;;;7.63;3.60;;;33.60;54.00;;;;;;6139548;23;20064;-88